sensor_id;sensor_type;location;lat;lon;timestamp;P1;durP1;ratioP1;P2;durP2;ratioP2
6193;SDS011;3130;41.564;23.280;2023-12-07T00:01:06;41.23;;;23.80;;
6193;SDS011;3130;41.564;23.280;2023-12-07T00:03:34;42.50;;;22.83;;
6193;SDS011;3130;41.564;23.280;2023-12-07T00:06:02;40.57;;;23.80;;
6193;SDS011;3130;41.564;23.280;2023-12-07T00:08:30;36.97;;;22.17;;
6193;SDS011;3130;41.564;23.280;2023-12-07T00:10:57;36.50;;;22.57;;
6193;SDS011;3130;41.564;23.280;2023-12-07T00:13:24;38.53;;;21.17;;
6193;SDS011;3130;41.564;23.280;2023-12-07T00:15:51;70.43;;;39.03;;
6193;SDS011;3130;41.564;23.280;2023-12-07T00:18:18;37.67;;;24.13;;
6193;SDS011;3130;41.564;23.280;2023-12-07T00:20:46;42.17;;;23.83;;
6193;SDS011;3130;41.564;23.280;2023-12-07T00:23:14;43.60;;;25.27;;
6193;SDS011;3130;41.564;23.280;2023-12-07T00:25:41;40.43;;;24.43;;
6193;SDS011;3130;41.564;23.280;2023-12-07T00:28:11;45.57;;;25.87;;
6193;SDS011;3130;41.564;23.280;2023-12-07T00:30:39;37.23;;;22.50;;
6193;SDS011;3130;41.564;23.280;2023-12-07T00:33:07;36.73;;;21.53;;
6193;SDS011;3130;41.564;23.280;2023-12-07T00:35:35;40.57;;;22.37;;
6193;SDS011;3130;41.564;23.280;2023-12-07T00:38:02;39.93;;;21.70;;
6193;SDS011;3130;41.564;23.280;2023-12-07T00:40:32;41.73;;;22.97;;
6193;SDS011;3130;41.564;23.280;2023-12-07T00:43:02;35.33;;;22.20;;
6193;SDS011;3130;41.564;23.280;2023-12-07T00:45:29;34.83;;;21.97;;
6193;SDS011;3130;41.564;23.280;2023-12-07T00:47:57;39.97;;;23.60;;
6193;SDS011;3130;41.564;23.280;2023-12-07T00:50:24;38.43;;;22.03;;
6193;SDS011;3130;41.564;23.280;2023-12-07T00:52:51;34.40;;;23.10;;
6193;SDS011;3130;41.564;23.280;2023-12-07T00:55:18;37.70;;;23.03;;
6193;SDS011;3130;41.564;23.280;2023-12-07T00:57:47;34.77;;;22.23;;
6193;SDS011;3130;41.564;23.280;2023-12-07T01:00:14;33.13;;;21.80;;
6193;SDS011;3130;41.564;23.280;2023-12-07T01:02:42;36.90;;;23.17;;
6193;SDS011;3130;41.564;23.280;2023-12-07T01:05:09;37.00;;;23.87;;
6193;SDS011;3130;41.564;23.280;2023-12-07T01:07:36;39.77;;;21.43;;
6193;SDS011;3130;41.564;23.280;2023-12-07T01:10:04;35.63;;;21.30;;
6193;SDS011;3130;41.564;23.280;2023-12-07T01:12:32;38.80;;;23.23;;
6193;SDS011;3130;41.564;23.280;2023-12-07T01:15:02;38.07;;;23.07;;
6193;SDS011;3130;41.564;23.280;2023-12-07T01:17:29;47.47;;;23.23;;
6193;SDS011;3130;41.564;23.280;2023-12-07T01:19:57;51.20;;;24.67;;
6193;SDS011;3130;41.564;23.280;2023-12-07T01:22:24;50.27;;;23.97;;
6193;SDS011;3130;41.564;23.280;2023-12-07T01:24:51;49.80;;;26.07;;
6193;SDS011;3130;41.564;23.280;2023-12-07T01:27:18;42.33;;;22.07;;
6193;SDS011;3130;41.564;23.280;2023-12-07T01:29:45;41.83;;;21.50;;
6193;SDS011;3130;41.564;23.280;2023-12-07T01:32:14;33.20;;;16.00;;
6193;SDS011;3130;41.564;23.280;2023-12-07T01:34:41;36.47;;;19.10;;
6193;SDS011;3130;41.564;23.280;2023-12-07T01:37:08;29.23;;;15.93;;
6193;SDS011;3130;41.564;23.280;2023-12-07T01:39:36;24.57;;;14.77;;
6193;SDS011;3130;41.564;23.280;2023-12-07T01:42:03;27.77;;;15.77;;
6193;SDS011;3130;41.564;23.280;2023-12-07T01:44:30;31.30;;;17.80;;
6193;SDS011;3130;41.564;23.280;2023-12-07T01:46:57;31.50;;;16.33;;
6193;SDS011;3130;41.564;23.280;2023-12-07T01:49:26;18.93;;;11.47;;
6193;SDS011;3130;41.564;23.280;2023-12-07T01:51:54;12.53;;;7.53;;
6193;SDS011;3130;41.564;23.280;2023-12-07T01:54:22;10.60;;;5.67;;
6193;SDS011;3130;41.564;23.280;2023-12-07T01:56:50;10.67;;;7.17;;
6193;SDS011;3130;41.564;23.280;2023-12-07T01:59:18;12.63;;;4.93;;
6193;SDS011;3130;41.564;23.280;2023-12-07T02:01:45;8.37;;;4.60;;
6193;SDS011;3130;41.564;23.280;2023-12-07T02:04:12;9.37;;;5.60;;
6193;SDS011;3130;41.564;23.280;2023-12-07T02:06:41;11.03;;;5.77;;
6193;SDS011;3130;41.564;23.280;2023-12-07T02:09:08;10.07;;;6.87;;
6193;SDS011;3130;41.564;23.280;2023-12-07T02:11:36;10.20;;;6.53;;
6193;SDS011;3130;41.564;23.280;2023-12-07T02:14:03;10.10;;;6.13;;
6193;SDS011;3130;41.564;23.280;2023-12-07T02:16:31;13.80;;;6.93;;
6193;SDS011;3130;41.564;23.280;2023-12-07T02:19:08;10.17;;;6.50;;
6193;SDS011;3130;41.564;23.280;2023-12-07T02:21:51;9.73;;;6.90;;
6193;SDS011;3130;41.564;23.280;2023-12-07T02:24:22;9.30;;;5.00;;
6193;SDS011;3130;41.564;23.280;2023-12-07T02:26:55;7.27;;;4.80;;
6193;SDS011;3130;41.564;23.280;2023-12-07T02:29:22;8.13;;;4.70;;
6193;SDS011;3130;41.564;23.280;2023-12-07T02:31:49;6.53;;;4.60;;
6193;SDS011;3130;41.564;23.280;2023-12-07T02:34:17;7.10;;;4.63;;
6193;SDS011;3130;41.564;23.280;2023-12-07T02:36:45;6.20;;;4.37;;
6193;SDS011;3130;41.564;23.280;2023-12-07T02:39:15;5.53;;;3.73;;
6193;SDS011;3130;41.564;23.280;2023-12-07T02:41:43;8.53;;;3.87;;
6193;SDS011;3130;41.564;23.280;2023-12-07T02:44:15;8.17;;;3.53;;
6193;SDS011;3130;41.564;23.280;2023-12-07T02:46:42;6.80;;;3.90;;
6193;SDS011;3130;41.564;23.280;2023-12-07T02:49:11;8.77;;;4.23;;
6193;SDS011;3130;41.564;23.280;2023-12-07T02:51:38;6.83;;;3.63;;
6193;SDS011;3130;41.564;23.280;2023-12-07T02:54:05;6.97;;;3.43;;
6193;SDS011;3130;41.564;23.280;2023-12-07T02:56:33;5.87;;;3.50;;
6193;SDS011;3130;41.564;23.280;2023-12-07T02:59:00;7.87;;;3.80;;
6193;SDS011;3130;41.564;23.280;2023-12-07T03:01:28;7.60;;;3.67;;
6193;SDS011;3130;41.564;23.280;2023-12-07T03:03:56;9.07;;;3.60;;
6193;SDS011;3130;41.564;23.280;2023-12-07T03:06:23;7.37;;;3.43;;
6193;SDS011;3130;41.564;23.280;2023-12-07T03:08:50;5.13;;;3.33;;
6193;SDS011;3130;41.564;23.280;2023-12-07T03:11:17;3.60;;;2.80;;
6193;SDS011;3130;41.564;23.280;2023-12-07T03:13:45;5.40;;;2.90;;
6193;SDS011;3130;41.564;23.280;2023-12-07T03:16:12;4.67;;;3.53;;
6193;SDS011;3130;41.564;23.280;2023-12-07T03:18:40;5.27;;;3.53;;
6193;SDS011;3130;41.564;23.280;2023-12-07T03:21:08;5.03;;;3.43;;
6193;SDS011;3130;41.564;23.280;2023-12-07T03:23:35;7.43;;;4.23;;
6193;SDS011;3130;41.564;23.280;2023-12-07T03:26:02;8.97;;;4.37;;
6193;SDS011;3130;41.564;23.280;2023-12-07T03:28:30;6.07;;;4.03;;
6193;SDS011;3130;41.564;23.280;2023-12-07T03:30:57;5.63;;;3.80;;
6193;SDS011;3130;41.564;23.280;2023-12-07T03:33:24;5.20;;;4.00;;
6193;SDS011;3130;41.564;23.280;2023-12-07T03:35:53;6.00;;;3.30;;
6193;SDS011;3130;41.564;23.280;2023-12-07T03:38:20;6.63;;;4.60;;
6193;SDS011;3130;41.564;23.280;2023-12-07T03:40:47;6.63;;;4.33;;
6193;SDS011;3130;41.564;23.280;2023-12-07T03:43:15;6.37;;;4.00;;
6193;SDS011;3130;41.564;23.280;2023-12-07T03:45:44;8.20;;;4.60;;
6193;SDS011;3130;41.564;23.280;2023-12-07T03:48:12;9.23;;;5.57;;
6193;SDS011;3130;41.564;23.280;2023-12-07T03:50:39;12.20;;;8.00;;
6193;SDS011;3130;41.564;23.280;2023-12-07T03:53:08;14.00;;;7.73;;
6193;SDS011;3130;41.564;23.280;2023-12-07T03:55:36;8.40;;;5.57;;
6193;SDS011;3130;41.564;23.280;2023-12-07T03:58:03;8.87;;;5.17;;
6193;SDS011;3130;41.564;23.280;2023-12-07T04:00:31;10.07;;;4.57;;
6193;SDS011;3130;41.564;23.280;2023-12-07T04:02:58;7.87;;;5.20;;
6193;SDS011;3130;41.564;23.280;2023-12-07T04:05:25;6.37;;;3.97;;
6193;SDS011;3130;41.564;23.280;2023-12-07T04:07:52;9.07;;;4.27;;
6193;SDS011;3130;41.564;23.280;2023-12-07T04:10:21;7.00;;;4.63;;
6193;SDS011;3130;41.564;23.280;2023-12-07T04:12:48;7.47;;;4.43;;
6193;SDS011;3130;41.564;23.280;2023-12-07T04:15:17;7.57;;;5.10;;
6193;SDS011;3130;41.564;23.280;2023-12-07T04:17:45;6.97;;;5.13;;
6193;SDS011;3130;41.564;23.280;2023-12-07T04:20:12;9.47;;;5.63;;
6193;SDS011;3130;41.564;23.280;2023-12-07T04:22:39;7.23;;;4.33;;
6193;SDS011;3130;41.564;23.280;2023-12-07T04:25:07;8.27;;;4.83;;
6193;SDS011;3130;41.564;23.280;2023-12-07T04:27:36;8.43;;;4.73;;
6193;SDS011;3130;41.564;23.280;2023-12-07T04:30:03;6.23;;;4.07;;
6193;SDS011;3130;41.564;23.280;2023-12-07T04:32:31;6.27;;;4.67;;
6193;SDS011;3130;41.564;23.280;2023-12-07T04:34:58;6.87;;;4.40;;
6193;SDS011;3130;41.564;23.280;2023-12-07T04:37:26;6.83;;;4.00;;
6193;SDS011;3130;41.564;23.280;2023-12-07T04:39:53;10.93;;;6.23;;
6193;SDS011;3130;41.564;23.280;2023-12-07T04:42:21;8.30;;;5.23;;
6193;SDS011;3130;41.564;23.280;2023-12-07T04:44:49;8.63;;;5.50;;
6193;SDS011;3130;41.564;23.280;2023-12-07T04:47:16;8.63;;;5.77;;
6193;SDS011;3130;41.564;23.280;2023-12-07T04:49:44;8.80;;;5.53;;
6193;SDS011;3130;41.564;23.280;2023-12-07T04:52:11;8.83;;;5.30;;
6193;SDS011;3130;41.564;23.280;2023-12-07T04:54:38;8.80;;;5.60;;
6193;SDS011;3130;41.564;23.280;2023-12-07T04:57:05;6.33;;;4.70;;
6193;SDS011;3130;41.564;23.280;2023-12-07T04:59:32;11.00;;;6.23;;
6193;SDS011;3130;41.564;23.280;2023-12-07T05:02:01;11.73;;;6.23;;
6193;SDS011;3130;41.564;23.280;2023-12-07T05:04:28;11.47;;;5.60;;
6193;SDS011;3130;41.564;23.280;2023-12-07T05:06:55;8.27;;;5.80;;
6193;SDS011;3130;41.564;23.280;2023-12-07T05:09:23;10.47;;;6.60;;
6193;SDS011;3130;41.564;23.280;2023-12-07T05:11:50;12.10;;;6.17;;
6193;SDS011;3130;41.564;23.280;2023-12-07T05:14:17;10.53;;;6.70;;
6193;SDS011;3130;41.564;23.280;2023-12-07T05:16:44;10.93;;;7.37;;
6193;SDS011;3130;41.564;23.280;2023-12-07T05:19:15;15.10;;;8.03;;
6193;SDS011;3130;41.564;23.280;2023-12-07T05:21:43;16.73;;;11.23;;
6193;SDS011;3130;41.564;23.280;2023-12-07T05:24:11;16.03;;;11.10;;
6193;SDS011;3130;41.564;23.280;2023-12-07T05:26:38;14.43;;;8.80;;
6193;SDS011;3130;41.564;23.280;2023-12-07T05:29:07;13.63;;;10.03;;
6193;SDS011;3130;41.564;23.280;2023-12-07T05:31:35;13.63;;;8.50;;
6193;SDS011;3130;41.564;23.280;2023-12-07T05:34:02;16.13;;;8.30;;
6193;SDS011;3130;41.564;23.280;2023-12-07T05:36:32;15.73;;;9.60;;
6193;SDS011;3130;41.564;23.280;2023-12-07T05:38:59;12.03;;;8.23;;
6193;SDS011;3130;41.564;23.280;2023-12-07T05:41:26;11.53;;;7.77;;
6193;SDS011;3130;41.564;23.280;2023-12-07T05:43:54;11.03;;;6.07;;
6193;SDS011;3130;41.564;23.280;2023-12-07T05:46:21;11.37;;;6.50;;
6193;SDS011;3130;41.564;23.280;2023-12-07T05:48:48;10.13;;;7.10;;
6193;SDS011;3130;41.564;23.280;2023-12-07T05:51:15;10.80;;;6.47;;
6193;SDS011;3130;41.564;23.280;2023-12-07T05:53:47;10.60;;;7.17;;
6193;SDS011;3130;41.564;23.280;2023-12-07T05:56:17;12.10;;;7.60;;
6193;SDS011;3130;41.564;23.280;2023-12-07T05:58:45;13.97;;;8.50;;
6193;SDS011;3130;41.564;23.280;2023-12-07T06:01:12;14.37;;;8.27;;
6193;SDS011;3130;41.564;23.280;2023-12-07T06:03:43;12.13;;;7.57;;
6193;SDS011;3130;41.564;23.280;2023-12-07T06:06:11;14.40;;;7.83;;
6193;SDS011;3130;41.564;23.280;2023-12-07T06:08:39;13.30;;;8.20;;
6193;SDS011;3130;41.564;23.280;2023-12-07T06:11:08;13.37;;;8.40;;
6193;SDS011;3130;41.564;23.280;2023-12-07T06:13:35;18.67;;;11.40;;
6193;SDS011;3130;41.564;23.280;2023-12-07T06:16:02;20.43;;;12.27;;
6193;SDS011;3130;41.564;23.280;2023-12-07T06:18:30;35.53;;;22.37;;
6193;SDS011;3130;41.564;23.280;2023-12-07T06:20:57;41.17;;;26.23;;
6193;SDS011;3130;41.564;23.280;2023-12-07T06:23:24;32.60;;;20.47;;
6193;SDS011;3130;41.564;23.280;2023-12-07T06:25:51;59.20;;;34.50;;
6193;SDS011;3130;41.564;23.280;2023-12-07T06:28:20;77.30;;;45.10;;
6193;SDS011;3130;41.564;23.280;2023-12-07T06:30:47;93.53;;;55.60;;
6193;SDS011;3130;41.564;23.280;2023-12-07T06:33:14;107.33;;;55.87;;
6193;SDS011;3130;41.564;23.280;2023-12-07T06:35:41;62.60;;;38.47;;
6193;SDS011;3130;41.564;23.280;2023-12-07T06:38:09;52.90;;;32.33;;
6193;SDS011;3130;41.564;23.280;2023-12-07T06:40:36;50.63;;;32.80;;
6193;SDS011;3130;41.564;23.280;2023-12-07T06:43:03;25.47;;;17.97;;
6193;SDS011;3130;41.564;23.280;2023-12-07T06:45:32;30.40;;;19.27;;
6193;SDS011;3130;41.564;23.280;2023-12-07T06:47:59;49.97;;;28.50;;
6193;SDS011;3130;41.564;23.280;2023-12-07T06:50:27;116.07;;;64.83;;
6193;SDS011;3130;41.564;23.280;2023-12-07T06:52:54;171.67;;;99.53;;
6193;SDS011;3130;41.564;23.280;2023-12-07T06:55:21;158.23;;;100.27;;
6193;SDS011;3130;41.564;23.280;2023-12-07T06:57:49;112.70;;;67.43;;
6193;SDS011;3130;41.564;23.280;2023-12-07T07:00:16;69.70;;;45.13;;
6193;SDS011;3130;41.564;23.280;2023-12-07T07:02:46;66.33;;;40.33;;
6193;SDS011;3130;41.564;23.280;2023-12-07T07:05:14;60.17;;;34.63;;
6193;SDS011;3130;41.564;23.280;2023-12-07T07:07:41;53.00;;;33.40;;
6193;SDS011;3130;41.564;23.280;2023-12-07T07:10:08;48.67;;;31.30;;
6193;SDS011;3130;41.564;23.280;2023-12-07T07:12:37;48.33;;;31.07;;
6193;SDS011;3130;41.564;23.280;2023-12-07T07:15:06;46.43;;;31.23;;
6193;SDS011;3130;41.564;23.280;2023-12-07T07:17:34;39.03;;;26.10;;
6193;SDS011;3130;41.564;23.280;2023-12-07T07:20:03;33.67;;;22.07;;
6193;SDS011;3130;41.564;23.280;2023-12-07T07:22:31;33.83;;;20.47;;
6193;SDS011;3130;41.564;23.280;2023-12-07T07:24:59;28.13;;;19.30;;
6193;SDS011;3130;41.564;23.280;2023-12-07T07:27:26;33.40;;;21.23;;
6193;SDS011;3130;41.564;23.280;2023-12-07T07:29:54;34.87;;;21.67;;
6193;SDS011;3130;41.564;23.280;2023-12-07T07:32:21;40.70;;;26.17;;
6193;SDS011;3130;41.564;23.280;2023-12-07T07:34:48;37.70;;;25.13;;
6193;SDS011;3130;41.564;23.280;2023-12-07T07:37:17;41.73;;;25.30;;
6193;SDS011;3130;41.564;23.280;2023-12-07T07:39:44;34.77;;;23.47;;
6193;SDS011;3130;41.564;23.280;2023-12-07T07:42:12;39.97;;;27.77;;
6193;SDS011;3130;41.564;23.280;2023-12-07T07:44:39;40.80;;;25.70;;
6193;SDS011;3130;41.564;23.280;2023-12-07T07:47:06;40.43;;;26.27;;
6193;SDS011;3130;41.564;23.280;2023-12-07T07:49:33;37.63;;;24.53;;
6193;SDS011;3130;41.564;23.280;2023-12-07T07:52:01;36.67;;;22.37;;
6193;SDS011;3130;41.564;23.280;2023-12-07T07:54:29;33.50;;;20.23;;
6193;SDS011;3130;41.564;23.280;2023-12-07T07:56:57;28.67;;;18.63;;
6193;SDS011;3130;41.564;23.280;2023-12-07T07:59:24;26.53;;;18.37;;
6193;SDS011;3130;41.564;23.280;2023-12-07T08:01:51;28.47;;;17.93;;
6193;SDS011;3130;41.564;23.280;2023-12-07T08:04:18;30.03;;;18.47;;
6193;SDS011;3130;41.564;23.280;2023-12-07T08:06:46;35.83;;;20.17;;
6193;SDS011;3130;41.564;23.280;2023-12-07T08:09:14;33.63;;;19.83;;
6193;SDS011;3130;41.564;23.280;2023-12-07T08:11:42;38.20;;;23.30;;
6193;SDS011;3130;41.564;23.280;2023-12-07T08:14:10;34.07;;;21.50;;
6193;SDS011;3130;41.564;23.280;2023-12-07T08:16:38;46.37;;;24.33;;
6193;SDS011;3130;41.564;23.280;2023-12-07T08:19:08;42.63;;;25.90;;
6193;SDS011;3130;41.564;23.280;2023-12-07T08:21:35;43.20;;;24.07;;
6193;SDS011;3130;41.564;23.280;2023-12-07T08:24:03;30.53;;;17.90;;
6193;SDS011;3130;41.564;23.280;2023-12-07T08:26:31;33.47;;;20.03;;
6193;SDS011;3130;41.564;23.280;2023-12-07T08:28:59;32.27;;;20.53;;
6193;SDS011;3130;41.564;23.280;2023-12-07T08:31:27;33.30;;;20.33;;
6193;SDS011;3130;41.564;23.280;2023-12-07T08:33:55;33.27;;;19.70;;
6193;SDS011;3130;41.564;23.280;2023-12-07T08:36:22;36.80;;;19.77;;
6193;SDS011;3130;41.564;23.280;2023-12-07T08:38:50;31.90;;;20.63;;
6193;SDS011;3130;41.564;23.280;2023-12-07T08:41:18;28.87;;;17.63;;
6193;SDS011;3130;41.564;23.280;2023-12-07T08:43:45;29.37;;;18.73;;
6193;SDS011;3130;41.564;23.280;2023-12-07T08:46:14;26.57;;;16.97;;
6193;SDS011;3130;41.564;23.280;2023-12-07T08:48:41;25.10;;;15.90;;
6193;SDS011;3130;41.564;23.280;2023-12-07T08:51:08;27.27;;;18.33;;
6193;SDS011;3130;41.564;23.280;2023-12-07T08:53:36;27.47;;;16.77;;
6193;SDS011;3130;41.564;23.280;2023-12-07T08:56:04;31.93;;;19.40;;
6193;SDS011;3130;41.564;23.280;2023-12-07T08:58:32;29.60;;;16.60;;
6193;SDS011;3130;41.564;23.280;2023-12-07T09:00:59;23.77;;;17.07;;
6193;SDS011;3130;41.564;23.280;2023-12-07T09:03:27;25.27;;;16.57;;
6193;SDS011;3130;41.564;23.280;2023-12-07T09:05:57;24.60;;;16.47;;
6193;SDS011;3130;41.564;23.280;2023-12-07T09:08:24;29.37;;;17.87;;
6193;SDS011;3130;41.564;23.280;2023-12-07T09:10:51;30.77;;;19.10;;
6193;SDS011;3130;41.564;23.280;2023-12-07T09:13:19;22.17;;;14.63;;
6193;SDS011;3130;41.564;23.280;2023-12-07T09:15:46;23.73;;;14.23;;
6193;SDS011;3130;41.564;23.280;2023-12-07T09:18:13;26.77;;;15.53;;
6193;SDS011;3130;41.564;23.280;2023-12-07T09:20:42;27.07;;;16.87;;
6193;SDS011;3130;41.564;23.280;2023-12-07T09:23:11;29.40;;;16.87;;
6193;SDS011;3130;41.564;23.280;2023-12-07T09:25:40;28.90;;;18.70;;
6193;SDS011;3130;41.564;23.280;2023-12-07T09:28:07;24.93;;;15.27;;
6193;SDS011;3130;41.564;23.280;2023-12-07T09:30:35;24.23;;;16.17;;
6193;SDS011;3130;41.564;23.280;2023-12-07T09:33:02;25.30;;;14.57;;
6193;SDS011;3130;41.564;23.280;2023-12-07T09:35:28;22.80;;;14.67;;
6193;SDS011;3130;41.564;23.280;2023-12-07T09:37:57;26.87;;;16.77;;
6193;SDS011;3130;41.564;23.280;2023-12-07T09:40:24;25.83;;;15.13;;
6193;SDS011;3130;41.564;23.280;2023-12-07T09:42:53;22.47;;;14.40;;
6193;SDS011;3130;41.564;23.280;2023-12-07T09:45:20;24.90;;;16.37;;
6193;SDS011;3130;41.564;23.280;2023-12-07T09:47:49;30.43;;;17.60;;
6193;SDS011;3130;41.564;23.280;2023-12-07T09:50:18;23.40;;;15.43;;
6193;SDS011;3130;41.564;23.280;2023-12-07T09:52:47;25.40;;;15.97;;
6193;SDS011;3130;41.564;23.280;2023-12-07T09:55:17;23.87;;;15.23;;
6193;SDS011;3130;41.564;23.280;2023-12-07T09:57:45;29.20;;;19.73;;
6193;SDS011;3130;41.564;23.280;2023-12-07T10:00:13;32.77;;;21.40;;
6193;SDS011;3130;41.564;23.280;2023-12-07T10:02:41;29.70;;;21.03;;
6193;SDS011;3130;41.564;23.280;2023-12-07T10:05:09;28.60;;;19.43;;
6193;SDS011;3130;41.564;23.280;2023-12-07T10:07:40;30.20;;;18.87;;
6193;SDS011;3130;41.564;23.280;2023-12-07T10:10:08;28.60;;;17.97;;
6193;SDS011;3130;41.564;23.280;2023-12-07T10:12:44;23.80;;;16.03;;
6193;SDS011;3130;41.564;23.280;2023-12-07T10:15:13;30.83;;;18.77;;
6193;SDS011;3130;41.564;23.280;2023-12-07T10:17:48;28.33;;;18.53;;
6193;SDS011;3130;41.564;23.280;2023-12-07T10:20:16;30.03;;;18.13;;
6193;SDS011;3130;41.564;23.280;2023-12-07T10:22:45;30.53;;;18.73;;
6193;SDS011;3130;41.564;23.280;2023-12-07T10:25:12;30.33;;;18.80;;
6193;SDS011;3130;41.564;23.280;2023-12-07T10:27:42;27.03;;;18.40;;
6193;SDS011;3130;41.564;23.280;2023-12-07T10:30:10;28.43;;;18.80;;
6193;SDS011;3130;41.564;23.280;2023-12-07T10:32:38;28.97;;;18.93;;
6193;SDS011;3130;41.564;23.280;2023-12-07T10:35:06;30.90;;;18.33;;
6193;SDS011;3130;41.564;23.280;2023-12-07T10:37:35;25.70;;;16.50;;
6193;SDS011;3130;41.564;23.280;2023-12-07T10:40:03;25.97;;;15.97;;
6193;SDS011;3130;41.564;23.280;2023-12-07T10:42:33;28.77;;;16.73;;
6193;SDS011;3130;41.564;23.280;2023-12-07T10:45:05;25.63;;;16.70;;
6193;SDS011;3130;41.564;23.280;2023-12-07T10:47:35;23.97;;;15.47;;
6193;SDS011;3130;41.564;23.280;2023-12-07T10:50:05;27.13;;;17.33;;
6193;SDS011;3130;41.564;23.280;2023-12-07T10:52:36;24.07;;;16.37;;
6193;SDS011;3130;41.564;23.280;2023-12-07T10:55:10;28.97;;;18.03;;
6193;SDS011;3130;41.564;23.280;2023-12-07T10:57:42;25.17;;;17.70;;
6193;SDS011;3130;41.564;23.280;2023-12-07T11:00:13;28.70;;;17.43;;
6193;SDS011;3130;41.564;23.280;2023-12-07T11:02:41;32.53;;;18.57;;
6193;SDS011;3130;41.564;23.280;2023-12-07T11:05:10;25.97;;;16.50;;
6193;SDS011;3130;41.564;23.280;2023-12-07T11:07:41;30.77;;;18.60;;
6193;SDS011;3130;41.564;23.280;2023-12-07T11:10:17;28.17;;;18.30;;
6193;SDS011;3130;41.564;23.280;2023-12-07T11:12:53;29.13;;;18.00;;
6193;SDS011;3130;41.564;23.280;2023-12-07T11:15:28;27.40;;;18.17;;
6193;SDS011;3130;41.564;23.280;2023-12-07T11:17:56;31.50;;;18.80;;
6193;SDS011;3130;41.564;23.280;2023-12-07T11:20:31;28.77;;;18.97;;
6193;SDS011;3130;41.564;23.280;2023-12-07T11:23:06;35.40;;;21.23;;
6193;SDS011;3130;41.564;23.280;2023-12-07T11:25:35;28.47;;;19.63;;
6193;SDS011;3130;41.564;23.280;2023-12-07T11:28:02;26.47;;;18.17;;
6193;SDS011;3130;41.564;23.280;2023-12-07T11:30:33;29.47;;;18.97;;
6193;SDS011;3130;41.564;23.280;2023-12-07T11:33:03;30.87;;;19.60;;
6193;SDS011;3130;41.564;23.280;2023-12-07T11:35:31;26.23;;;18.97;;
6193;SDS011;3130;41.564;23.280;2023-12-07T11:38:05;28.70;;;18.60;;
6193;SDS011;3130;41.564;23.280;2023-12-07T11:40:37;29.23;;;18.53;;
6193;SDS011;3130;41.564;23.280;2023-12-07T11:43:06;27.83;;;19.77;;
6193;SDS011;3130;41.564;23.280;2023-12-07T11:45:40;28.97;;;18.77;;
6193;SDS011;3130;41.564;23.280;2023-12-07T11:48:09;34.80;;;20.37;;
6193;SDS011;3130;41.564;23.280;2023-12-07T11:50:36;37.17;;;22.03;;
6193;SDS011;3130;41.564;23.280;2023-12-07T11:53:24;30.03;;;20.90;;
6193;SDS011;3130;41.564;23.280;2023-12-07T11:55:52;30.50;;;19.90;;
6193;SDS011;3130;41.564;23.280;2023-12-07T11:58:21;31.40;;;19.53;;
6193;SDS011;3130;41.564;23.280;2023-12-07T12:00:50;31.53;;;20.63;;
6193;SDS011;3130;41.564;23.280;2023-12-07T12:03:19;34.30;;;20.20;;
6193;SDS011;3130;41.564;23.280;2023-12-07T12:05:46;32.27;;;20.97;;
6193;SDS011;3130;41.564;23.280;2023-12-07T12:08:13;30.73;;;20.50;;
6193;SDS011;3130;41.564;23.280;2023-12-07T12:10:42;33.67;;;20.50;;
6193;SDS011;3130;41.564;23.280;2023-12-07T12:13:10;35.37;;;20.73;;
6193;SDS011;3130;41.564;23.280;2023-12-07T12:15:37;30.67;;;20.03;;
6193;SDS011;3130;41.564;23.280;2023-12-07T12:18:07;34.40;;;21.63;;
6193;SDS011;3130;41.564;23.280;2023-12-07T12:20:35;32.80;;;22.00;;
6193;SDS011;3130;41.564;23.280;2023-12-07T12:23:02;36.63;;;21.40;;
6193;SDS011;3130;41.564;23.280;2023-12-07T12:25:30;33.13;;;20.73;;
6193;SDS011;3130;41.564;23.280;2023-12-07T12:27:59;31.63;;;20.27;;
6193;SDS011;3130;41.564;23.280;2023-12-07T12:30:29;39.17;;;21.17;;
6193;SDS011;3130;41.564;23.280;2023-12-07T12:32:57;33.17;;;21.23;;
6193;SDS011;3130;41.564;23.280;2023-12-07T12:35:26;40.60;;;25.07;;
6193;SDS011;3130;41.564;23.280;2023-12-07T12:37:54;34.10;;;20.77;;
6193;SDS011;3130;41.564;23.280;2023-12-07T12:40:22;35.33;;;23.57;;
6193;SDS011;3130;41.564;23.280;2023-12-07T12:42:50;37.13;;;23.17;;
6193;SDS011;3130;41.564;23.280;2023-12-07T12:45:19;37.47;;;23.47;;
6193;SDS011;3130;41.564;23.280;2023-12-07T12:47:46;36.50;;;22.67;;
6193;SDS011;3130;41.564;23.280;2023-12-07T12:53:02;40.87;;;24.50;;
6193;SDS011;3130;41.564;23.280;2023-12-07T12:55:32;45.33;;;23.83;;
6193;SDS011;3130;41.564;23.280;2023-12-07T12:58:00;36.17;;;23.73;;
6193;SDS011;3130;41.564;23.280;2023-12-07T13:00:29;43.73;;;25.70;;
6193;SDS011;3130;41.564;23.280;2023-12-07T13:02:58;38.73;;;23.20;;
6193;SDS011;3130;41.564;23.280;2023-12-07T13:05:25;39.00;;;20.87;;
6193;SDS011;3130;41.564;23.280;2023-12-07T13:07:54;36.03;;;24.27;;
6193;SDS011;3130;41.564;23.280;2023-12-07T13:10:22;34.47;;;22.10;;
6193;SDS011;3130;41.564;23.280;2023-12-07T13:12:49;33.57;;;21.57;;
6193;SDS011;3130;41.564;23.280;2023-12-07T13:15:16;37.23;;;23.00;;
6193;SDS011;3130;41.564;23.280;2023-12-07T13:17:43;35.27;;;21.87;;
6193;SDS011;3130;41.564;23.280;2023-12-07T13:20:11;36.13;;;22.03;;
6193;SDS011;3130;41.564;23.280;2023-12-07T13:22:39;38.73;;;25.23;;
6193;SDS011;3130;41.564;23.280;2023-12-07T13:25:10;38.20;;;23.63;;
6193;SDS011;3130;41.564;23.280;2023-12-07T13:27:37;32.57;;;21.20;;
6193;SDS011;3130;41.564;23.280;2023-12-07T13:30:05;35.37;;;21.70;;
6193;SDS011;3130;41.564;23.280;2023-12-07T13:32:34;38.50;;;22.73;;
6193;SDS011;3130;41.564;23.280;2023-12-07T13:35:06;42.60;;;24.73;;
6193;SDS011;3130;41.564;23.280;2023-12-07T13:37:34;38.93;;;23.63;;
6193;SDS011;3130;41.564;23.280;2023-12-07T13:40:01;36.90;;;24.77;;
6193;SDS011;3130;41.564;23.280;2023-12-07T13:42:31;36.10;;;23.47;;
6193;SDS011;3130;41.564;23.280;2023-12-07T13:44:58;40.27;;;24.23;;
6193;SDS011;3130;41.564;23.280;2023-12-07T13:47:26;42.93;;;25.77;;
6193;SDS011;3130;41.564;23.280;2023-12-07T13:49:56;44.70;;;25.67;;
6193;SDS011;3130;41.564;23.280;2023-12-07T13:52:24;37.77;;;24.27;;
6193;SDS011;3130;41.564;23.280;2023-12-07T13:54:53;38.67;;;22.47;;
6193;SDS011;3130;41.564;23.280;2023-12-07T13:57:21;27.53;;;18.87;;
6193;SDS011;3130;41.564;23.280;2023-12-07T13:59:52;24.67;;;16.90;;
6193;SDS011;3130;41.564;23.280;2023-12-07T14:02:19;25.83;;;16.67;;
6193;SDS011;3130;41.564;23.280;2023-12-07T14:04:47;21.70;;;14.10;;
6193;SDS011;3130;41.564;23.280;2023-12-07T14:07:16;20.37;;;15.30;;
6193;SDS011;3130;41.564;23.280;2023-12-07T14:09:46;23.63;;;17.47;;
6193;SDS011;3130;41.564;23.280;2023-12-07T14:12:14;25.07;;;13.73;;
6193;SDS011;3130;41.564;23.280;2023-12-07T14:14:43;17.53;;;11.10;;
6193;SDS011;3130;41.564;23.280;2023-12-07T14:17:13;15.37;;;10.87;;
6193;SDS011;3130;41.564;23.280;2023-12-07T14:19:43;19.10;;;12.83;;
6193;SDS011;3130;41.564;23.280;2023-12-07T14:22:12;15.47;;;11.27;;
6193;SDS011;3130;41.564;23.280;2023-12-07T14:24:39;15.83;;;10.53;;
6193;SDS011;3130;41.564;23.280;2023-12-07T14:27:07;15.80;;;10.57;;
6193;SDS011;3130;41.564;23.280;2023-12-07T14:29:34;17.03;;;9.93;;
6193;SDS011;3130;41.564;23.280;2023-12-07T14:32:02;18.17;;;12.13;;
6193;SDS011;3130;41.564;23.280;2023-12-07T14:34:31;28.03;;;18.30;;
6193;SDS011;3130;41.564;23.280;2023-12-07T14:36:58;15.23;;;9.53;;
6193;SDS011;3130;41.564;23.280;2023-12-07T14:39:28;14.53;;;8.97;;
6193;SDS011;3130;41.564;23.280;2023-12-07T14:41:55;13.23;;;9.80;;
6193;SDS011;3130;41.564;23.280;2023-12-07T14:44:23;12.97;;;8.77;;
6193;SDS011;3130;41.564;23.280;2023-12-07T14:46:50;12.83;;;7.30;;
6193;SDS011;3130;41.564;23.280;2023-12-07T14:49:18;12.13;;;7.80;;